La Bastide des Jourdans (84) - F

Date : 19/05/2012
Distance : 2,000 km

Place Nom Licence Catégorie Club Temps min/km CN à J-60 Points Différence Nouveau CN
1 BOUSSER Etienne 1843 H65 5702LO 0:22:51 11'25 6554 6384 -170 6659
2 DROIN Solène 17925 D16 4201RA 0:23:23 11'41 4459 6238 +1779 5009
3 BODY Mathilde 10184 D16 7305RA 0:23:37 11'48 5114 6176 +1062 5134
4 BORNARD Julie 9402 D16 7305RA 0:23:44 11'52 3937 6146 +2209 4563
5 HABERKORN Chloé 10396 D16 2105BO 0:24:43 12'21 5412 5901 +489 5339
6 BUHRE Anders 7430 H70 0615AZ 0:25:28 12'44 5712 5728 +16 5715
7 GIRARD Lucille 19689 D16 3705CE 0:26:06 13'03 4846 5589 +743 4888
8 DECHAVANNE J-Francois 3461 H60 6911RA 0:27:48 13'54 6101 5247 -854 6000
9 MASCARELL Henri 8928 H60 6911RA 0:28:17 14'08 5518 5157 -361 5518
10 BERGER-CAPBERN Valérie 6068 D50 3105MP 0:28:36 14'18 4866 5100 +234 4955
11 FOL Loreline 16393 D16 3105MP 0:29:27 14'43 3214 4953 +1739 3900
12 BASSET Fiona 23384 D16 6911RA 0:29:34 14'47 3982 4933 +951 4121
13 CAMPOS J-Pierre 1739 H60 8302AZ 0:30:22 15'11 4553 4803 +250 4487
14 QUEYROI Henri 655 H65 3308AQ 0:30:53 15'26 4200 4723 +523 4420
15 GUILLEMET Océane 22819 D16 3318AQ 0:32:06 16'03 3706 4544 +838 4553
16 COULON Thibaud 5803 H60 0615AZ 0:32:17 16'08 4997 4518 -479 4997
17 PETER-JAN Lucile 19276 D16 3705CE 0:32:20 16'10 4565 4511 -54 4552
18 GEOFFROY Gerard 6442 H65 3408LR 0:32:28 16'14 4234 4493 +259 4171
19 LOPEZ Alain 465 H60 1303PR 0:32:34 16'17 4936 4479 -457 5082
20 THIEVENAZ Roland 9230 H60 3811RA 0:32:53 16'26 4874 4436 -438 4851
21 ALLANCON Michel 1005 H60 2906BR 0:33:20 16'40 4803 4376 -427 4772
22 MOISSET Jacques 2328 H60 7403RA 0:33:44 16'52 4599 4324 -275 5002
23 LEMERCIER Victoire 11454 D16 5407LO 0:33:55 16'57 3608 4301 +693 3672
24 MARTIN Pascale 23568 D50 7512IF 0:33:58 16'59 4374 4294 -80 4469
25 JACOMINO Mireille 277 D50 3801RA 0:34:10 17'05 4049 4269 +220 3992
26 VAGNER Christine 3651 D55 5702LO 0:34:17 17'08 4662 4255 -407 4799
27 POCIELLO Christian 10918 H60 3408LR 0:34:27 17'13 4308 4234 -74 4266
28 RICHAUD Alain 4156 H65 0615AZ 0:35:17 17'38 4883 4134 -749 4929
29 ROUX Marie Françoise 25236 D50 4201RA 0:35:33 17'46 4103 3449
30 DELENNE Camilla 13800 D16 1307PR 0:35:41 17'50 3712 4088 +376 3802
31 VUILLET Christian 2712 H60 2105BO 0:35:48 17'54 4541 4074 -467 4523
32 LOCUSSE Robert 2530 H60 5703LO 0:35:48 17'54 4546 4074 -472 4597
33 SIMONET Jean 930 H70 7707IF 0:36:05 18'02 4103 4042 -61 4345
34 DELATOUR Christiane 3057 D50 7404RA 0:36:24 18'12 4945 4007 -938 4875
35 GOLMARD Dominique 2670 H60 2101BO 0:37:04 18'32 4913 3935 -978 4836
36 PICAZO Marie 16555 D16 8405PR 0:37:06 18'33 3878 3932 +54 4035
37 LE DREAU J-Claude 9396 H60 4203RA 0:37:27 18'43 3979 3895 -84 3917
38 JOUZEAU Georges 9472 H60 7404RA 0:37:34 18'47 4624 3883 -741 4461
39 PUECH Francoise 1174 D55 8311AZ 0:37:58 18'59 3783 3842 +59 3967
40 GOLMARD Christian 2669 H65 2101BO 0:37:59 18'59 4739 3840 -899 4663
41 BERJOAN Claudie 13598 D55 3408LR 0:38:18 19'09 4252 3808 -444 4478
42 BAUDOIN Jean-Paul 16352 H60 0615AZ 0:38:23 19'11 4109 3800 -309 4008
43 DERMINE Isabelle 1847 D50 3801RA 0:38:50 19'25 4801 3756 -1045 4801
44 ANTOINE Alain 1270 H65 2605RA 0:39:02 19'31 4960 3737 -1223 5100
45 THIEBAUT Evelyne 16129 D55 5702LO 0:39:06 19'33 3088 3731 +643 3186
46 JUSSIAN Sylvie 17094 D50 1307PR 0:39:16 19'38 3759 3715 -44 3848
47 PERE Catherine 2730 D50 2105BO 0:39:54 19'57 3987 3656 -331 4077
48 RIVOLLIER Isaline 22451 D16 4201RA 0:39:58 19'59 3898 3650 -248 4252
49 DEBARBIEUX Julie 24574 D16 2108BO 0:40:06 20'03 2611 3638 +1027 3225
50 BERRARD Anna 19762 D16 2607RA 0:40:11 20'05 3727 3630 -97 3902
51 DEFIX Julia 19894 D16 4203RA 0:41:09 20'34 3563 3545 -18 3508
52 CORDIER Jacques 3312 H65 5702LO 0:41:23 20'41 5426 3525 -1901 5550
53 MERMILLOD M-Elisabet 7307 D55 3811RA 0:42:20 21'10 3614 3446 -168 3750
54 BORRELLI Bernadette 5167 D65 8302AZ 0:42:38 21'19 2157 3421 +1264 2561
55 CHAILLARD Dana 12045 D16 7305RA 0:43:22 21'41 2609 3364 +755 2710
56 BERGER M-Jose 7182 D60 5703LO 0:43:55 21'57 3578 3321 -257 3695
57 ANTOINE Regis 1276 H70 7108BO 0:43:56 21'58 3534 3320 -214 3578
58 MAGDINIER Gilles 1635 H60 1307PR 0:44:29 22'14 4806 3279 -1527 4904
59 JEQUEL Yann 3086 H65 4403PL 0:44:53 22'26 4230 3250 -980 4230
60 GOLMARD Chantal 2668 D55 2101BO 0:45:21 22'40 3332 3216 -116 3118
61 VILLEDIEU Martine 13752 D55 6913RA 0:45:22 22'41 3668 3215 -453 3586
62 COULON Annick 10073 D60 0615AZ 0:45:28 22'44 3518 3208 -310 3599
63 THIEBAULT Monique 5033 D65 3318AQ 0:45:32 22'46 3574 3203 -371 3449
64 SCHELCHER Ginette 20409 D50 6806AL 0:46:03 23'01 3438 3168 -270 3550
65 BAUDOIN Annie 16634 D60 0615AZ 0:46:03 23'01 2966 3168 +202 3040
66 COMBET Annie 813 D50 4203RA 0:46:08 23'04 4353 3162 -1191 4343
67 KRIPPEL Johann 26285 H21 5407LO 0:46:35 23'17 3131 3006
68 ELIAS Jean-claude 24745 H70 1307PR 0:46:50 23'25 2793 3115 +322 3083
69 PITAVAL Sylvie 12060 D50 4201RA 0:47:16 23'38 3820 3086 -734 3749
70 PERMINGEAT Helene 21054 D55 2606RA 0:47:36 23'48 3222 3064 -158 3230
71 GATY Daniele 841 D55 4203RA 0:47:42 23'51 4031 3058 -973 4109
72 CABIANCA Beatrice 2426 D50 4709AQ 0:47:51 23'55 3516 3048 -468 3554
73 BESTEL Sandra 10758 D16 9105IF 0:48:07 24'03 3583 3031 -552 3678
74 MARTIN Gilbert 5141 H60 9404IF 0:48:23 24'11 4281 3015 -1266 4283
75 GUET Martine 11810 D55 6906RA 0:48:24 24'12 2843 3014 +171 2809
76 COLOMBET Christian 3163 H65 2108BO 0:48:24 24'12 5174 3014 -2160 5140
77 GRAUER Isabelle 11322 D55 1307PR 0:48:34 24'17 3448 3003 -445 3295
78 ANNE Brigitte 1672 D60 0111RA 0:49:06 24'33 3257 2971 -286 3180
79 MONTERRAT Martine 8512 D50 4203RA 0:49:13 24'36 3313 2964 -349 3232
80 MOUTRILLE Bernard 6359 H60 2105BO 0:49:23 24'41 2966 2954 -12 2772
81 GERBEAUX Jean-paul 23596 H60 6205NO 0:49:28 24'44 3491 2949 -542 3565
82 ANNE Roger 1673 H60 0111RA 0:49:41 24'50 4262 2936 -1326 3992
83 CHATAGNIER Clea 11106 D16 7404RA 0:49:43 24'51 1854 2934 +1080 1873
84 DRAULT J-Raymond 4234 H70 8702LI 0:50:22 25'11 2681 2896 +215 2769
85 JAOUEN Denis 6885 H60 2904BR 0:50:25 25'12 3759 2893 -866 3759
86 XIMENEZ Nadege 21359 D45 3801RA 0:50:26 25'13 3316 2892 -424 3229
87 MENUT J-Claude 1656 H60 8105MP 0:50:31 25'15 5552 2887 -2665 5520
88 ASSANTE Gerard 19382 H65 1303PR 0:50:44 25'22 3665 2875 -790 3752
89 HERVE-JOUSSE Odile 13784 D55 9109IF 0:50:54 25'27 3532 2866 -666 3441
90 MOISSET Nicole 2329 D55 7403RA 0:50:58 25'29 3360 2862 -498 2743
91 ABISSE Jacques 703 H65 2508FC 0:51:25 25'42 4369 2837 -1532 4385
92 BOUVERET Michelle 12102 D55 2508FC 0:51:30 25'45 3423 2832 -591 3486
93 BERRIEN Coline 18765 D16 1303PR 0:52:11 26'05 2355 2795 +440 2480
94 DEVILLE Nelly 2401 D60 5402LO 0:52:43 26'21 4738 2767 -1971 4631
95 BOENSCH Francoise 1585 D55 1307PR 0:53:01 26'30 2871 2751 -120 2717
96 SLIMAN Jacques 4537 H60 0503PR 0:53:05 26'32 3999 2748 -1251 3999
97 RAULT Monique 17265 D55 1103LR 0:53:19 26'39 2721 2736 +15 2896
98 MARCHESIN Sylvie 1487 D50 5702LO 0:54:20 27'10 4934 2685 -2249 4958
99 CAZALA Dominique 14876 D55 3308AQ 0:56:13 28'06 2869 2595 -274 2889
100 SCHMITT-POUPARD Florence 12056 D55 6913RA 0:56:30 28'15 3927 2582 -1345 3813
101 BOYER Bernard 2294 H65 8702LI 0:56:54 28'27 2279 2564 +285 2635
102 GANDON J-Claude 249 H70 6906RA 0:56:57 28'28 4025 2561 -1464 4025
103 ABISSE Gisele 701 D65 2508FC 0:57:22 28'41 3456 2543 -913 3441
104 KIEFFER Mireille 2680 D65 2101BO 0:57:27 28'43 2734 2539 -195 2695
105 LAZAROWICZ Richard 3600 H65 7512IF 0:57:32 28'46 3529 2535 -994 3350
106 CURT Daniel 7204 H65 5702LO 0:58:04 29'02 2213 2512 +299 2297
107 GEOFFROY Nicole 6443 D60 3408LR 0:58:15 29'07 3216 2504 -712 3020
108 BEGUINOT Claire 13961 D16 5702LO 0:58:40 29'20 0 2486 2757
109 DODIER Lucile 10486 D16 8405PR 0:59:10 29'35 1670 2465 +795 1788
110 GIGON-VELUZAT Laurence 11316 D50 3809RA 0:59:25 29'42 2983 2455 -528 2504
111 KIEFFER J-Paul 2679 H60 2101BO 0:59:58 29'59 3840 2432 -1408 3782
112 DUVAL Jacques 2524 H60 5703LO 1:00:12 30'06 3325 2423 -902 3295
113 RIFFARD M-Lucie 2446 D70 5702LO 1:00:49 30'24 2921 2398 -523 2838
114 VERDIN Christine 15274 D50 7109BO 1:02:17 31'08 2665 2342 -323 2423
115 SURBAYROLE Nicolas 22415 H18 3811RA 1:02:37 31'18 2116 2329 +213 2328
116 CERET Martine 4597 D55 4203RA 1:02:53 31'26 3403 2320 -1083 3321
117 RIFFARD J-Claude 2445 H70 5702LO 1:03:54 31'57 3245 2283 -962 3301
118 PASCAUD Claire 3185 D65 9006FC 1:03:58 31'59 2359 2280 -79 2277
119 ASSANTE Michele 19383 D55 1303PR 1:04:02 32'01 2748 2278 -470 2874
120 SUTTER Odile 2387 D55 6806AL 1:04:44 32'22 2946 2253 -693 2881
121 VERGE Evelyne 12787 D50 4601MP 1:05:40 32'50 3195 2221 -974 3101
122 GUIGNARD Marie 11369 D50 7203PL 1:06:02 33'01 3141 2209 -932 3146
123 SIMONET Marie 931 D60 7707IF 1:06:12 33'06 2842 2203 -639 2862
124 MULLER Raymond 352 H70 9006FC 1:07:32 33'46 3161 2160 -1001 2893
125 MOLLARET Arielle 14534 D50 7404RA 1:08:01 34'00 1568 2145 +577 0
126 LENFANT Chantal 10264 D55 3811RA 1:10:02 35'01 3092 2083 -1009 3176
127 DECHAVANNE Denise 3462 D55 6911RA 1:10:34 35'17 2276 2067 -209 2276
128 GROSJEAN A-Marie 12059 D70 6913RA 1:12:19 36'09 2838 2017 -821 2749
129 GUIGUET Antoinette 454 D55 1303PR 1:16:00 38'00 2825 1919 -906 2921
130 PEETERS Simone 295 D70 7305RA 1:20:21 40'10 2339 1815 -524 2214
131 VINCENT Isabelle 24288 D55 2606RA 1:21:50 40'55 900 1782 +882 904
132 CATMUR virginia 25103 D55 0503PR 1:22:43 41'21 1466 1763 +297 1645
133 THIEVENAZ Francoise 19672 D60 3811RA 1:23:32 41'46 0 1746 1708
134 FINO Béatrice 1674 D40 0111RA 1:25:37 42'48 2538 1704 -834 2453
135 BERION Marie-Josephe 23056 D55 2508FC 1:33:21 46'40 2655 1563 -1092 2784
136 REYNAUD Elisabeth 24430 D50 0703RA 1:36:00 48'00 1519 0
137 BOCHET Roland 512 H70 3408LR 1:39:45 49'52 1971 1462 -509 2024
BISSIERE Camille 19486 D16 4709AQ pm None 4031 0 3932
BENEVELLO Olivier 1124 H60 0615AZ pm None 4104 0 4117
BEDRY Milla 24043 D16 8404PR pm None 0 0 0
MATHIEU Maurice 476 H60 8404PR pm None 3467 0 3467
LEMAIRE Nathalie 10979 D50 1307PR pm None 3482 0 3508
GUIGUET Michel 455 H65 1303PR pm None 3930 0 3927
ELIAS Pauline 16137 D16 1307PR pm None 3486 0 3514
BOUILLET Geneviève 8944 D60 3811RA pm None 2282 0 2376
DEGORS Marine 25439 D16 3809RA pm None 0 1603
ALLANCON Claudine 14632 D60 2906BR pm None 2020 0 2077
QUEYROI Yvette 14021 D50 3308AQ pm None 2002 0 1979
SABON Valérie 25685 D50 1307PR pm None 0 0 1080